Time;durP1;ratioP1;P1;durP2;ratioP2;P2;SDS_P1;SDS_P2;PMS_P1;PMS_P2;Temp;Humidity;BMP_temperature;BMP_pressure;BME280_temperature;BME280_humidity;BME280_pressure;Samples;Min_cycle;Max_cycle;Signal;HPM_P1;HPM_P2
2022/02/06 00:00:44;;;;;;;2.58;1.10;;;15.60;46.70;;;;;;5133353;27;20538;-49
2022/02/06 00:03:11;;;;;;;2.25;0.90;;;15.60;47.30;;;;;;5133185;27;20032;-51
2022/02/06 00:05:37;;;;;;;1.80;0.90;;;15.60;46.90;;;;;;5136326;27;20058;-50
2022/02/06 00:08:11;;;;;;;1.55;0.70;;;15.60;46.80;;;;;;5137109;27;20023;-50
2022/02/06 00:10:37;;;;;;;1.67;1.00;;;15.60;46.80;;;;;;5137504;27;20015;-51
2022/02/06 00:13:03;;;;;;;1.58;0.70;;;15.60;46.80;;;;;;5137604;27;20108;-51
2022/02/06 00:15:29;;;;;;;1.30;0.70;;;15.60;47.10;;;;;;5137779;27;20072;-49
2022/02/06 00:17:56;;;;;;;3.30;0.90;;;15.60;46.90;;;;;;5137008;27;20036;-49
2022/02/06 00:20:25;;;;;;;2.65;0.90;;;15.60;46.90;;;;;;5137257;27;20035;-51
2022/02/06 00:22:56;;;;;;;2.25;0.68;;;15.60;47.00;;;;;;5137252;27;20035;-52
2022/02/06 00:33:20;;;;;;;2.00;0.80;;;15.60;47.10;;;;;;5137165;27;20102;-49
2022/02/06 00:43:16;;;;;;;4.10;0.93;;;15.60;47.20;;;;;;5136860;27;20500;-49
2022/02/06 00:45:43;;;;;;;1.77;0.75;;;15.60;47.30;;;;;;5136942;27;20012;-53
2022/02/06 00:48:11;;;;;;;1.63;0.63;;;15.60;47.20;;;;;;5136831;27;20017;-52
2022/02/06 00:50:41;;;;;;;2.13;0.80;;;15.60;47.20;;;;;;5136590;27;20474;-51
2022/02/06 00:53:15;;;;;;;2.47;0.87;;;15.60;47.20;;;;;;5136663;27;20023;-49
2022/02/06 00:55:41;;;;;;;1.55;0.77;;;15.60;47.30;;;;;;5136103;27;20253;-49
2022/02/06 00:58:07;;;;;;;2.70;0.85;;;15.60;47.30;;;;;;5136365;27;20095;-49
2022/02/06 01:00:33;;;;;;;2.70;0.93;;;15.60;47.30;;;;;;5136036;27;20541;-49
2022/02/06 01:02:59;;;;;;;2.67;0.80;;;15.60;47.20;;;;;;5135980;27;20058;-49
2022/02/06 01:05:26;;;;;;;2.78;0.90;;;15.60;47.30;;;;;;5136007;27;20526;-50
2022/02/06 01:07:54;;;;;;;2.22;0.68;;;15.60;47.30;;;;;;5136327;27;20064;-50
2022/02/06 01:10:20;;;;;;;2.55;0.82;;;15.60;47.30;;;;;;5136171;27;20045;-50
2022/02/06 01:12:54;;;;;;;3.88;0.85;;;15.60;47.40;;;;;;5136067;27;20044;-51
2022/02/06 01:15:24;;;;;;;1.60;0.80;;;15.60;47.50;;;;;;5135639;27;20015;-48
2022/02/06 01:18:02;;;;;;;2.92;0.80;;;15.60;47.40;;;;;;5135781;27;20012;-50
2022/02/06 01:20:34;;;;;;;1.13;0.63;;;15.50;47.30;;;;;;5136017;27;20037;-48
2022/02/06 01:26:06;;;;;;;3.72;0.65;;;15.50;47.30;;;;;;5122431;27;20489;-49
2022/02/06 01:28:38;;;;;;;1.10;0.60;;;15.50;47.30;;;;;;5136859;27;20011;-51
2022/02/06 01:31:29;;;;;;;1.50;0.80;;;15.50;47.40;;;;;;5136470;27;20037;-50
2022/02/06 01:34:00;;;;;;;3.28;0.77;;;15.50;47.40;;;;;;5136321;27;20023;-49
2022/02/06 01:41:24;;;;;;;1.67;0.80;;;15.50;47.50;;;;;;5137591;27;20023;-54
2022/02/06 02:45:51;;;;;;;2.03;0.70;;;15.50;47.80;;;;;;5134450;27;20447;-53
2022/02/06 02:47:53;;;;;;;1.20;0.80;;;15.40;47.80;;;;;;5126252;27;20027;-53
2022/02/06 02:50:22;;;;;;;1.30;0.63;;;15.40;47.80;;;;;;5134717;27;20476;-50
2022/02/06 02:58:04;;;;;;;2.28;0.57;;;15.40;47.80;;;;;;5134314;27;20131;-50
2022/02/06 03:00:44;;;;;;;0.82;0.50;;;15.40;47.90;;;;;;5134364;27;20030;-50
2022/02/06 03:03:15;;;;;;;1.75;0.60;;;15.40;47.90;;;;;;5134391;27;20080;-51
2022/02/06 03:05:42;;;;;;;2.60;0.68;;;15.40;47.90;;;;;;5134782;27;20011;-51
2022/02/06 03:08:09;;;;;;;1.00;0.50;;;15.40;47.90;;;;;;5134967;28;20043;-50
2022/02/06 03:10:35;;;;;;;1.08;0.68;;;15.40;47.90;;;;;;5134053;27;20019;-51
2022/02/06 03:13:04;;;;;;;2.95;0.57;;;15.40;47.90;;;;;;5134141;28;20024;-50
2022/02/06 03:18:02;;;;;;;1.80;0.80;;;15.40;48.20;;;;;;5134449;27;20019;-52
2022/02/06 03:20:29;;;;;;;2.25;0.85;;;15.40;48.10;;;;;;5134460;27;20019;-50
2022/02/06 03:23:00;;;;;;;1.95;0.95;;;15.40;48.00;;;;;;5135360;27;20485;-52
2022/02/06 03:25:26;;;;;;;0.73;0.57;;;15.40;48.20;;;;;;5135499;28;20012;-52
2022/02/06 03:27:52;;;;;;;1.00;0.50;;;15.40;48.20;;;;;;5135374;28;20018;-49
2022/02/06 03:30:18;;;;;;;2.33;0.80;;;15.40;48.20;;;;;;5136236;28;20026;-49
2022/02/06 03:32:45;;;;;;;1.65;0.70;;;15.40;48.80;;;;;;5135622;27;20018;-47
2022/02/06 03:35:10;;;;;;;1.60;0.70;;;15.40;48.30;;;;;;5136128;28;20019;-48
2022/02/06 03:37:39;;;;;;;1.45;0.63;;;15.40;48.30;;;;;;5134427;27;20027;-52
2022/02/06 03:40:06;;;;;;;1.52;0.77;;;15.40;48.40;;;;;;5136899;27;20046;-52
2022/02/06 03:42:44;;;;;;;1.65;0.70;;;15.40;48.20;;;;;;5138514;27;20018;-50
2022/02/06 03:45:18;;;;;;;1.02;0.52;;;15.40;48.30;;;;;;5138341;27;20011;-53
2022/02/06 03:47:53;;;;;;;1.25;0.70;;;15.40;48.40;;;;;;5139186;27;20015;-51
2022/02/06 03:50:19;;;;;;;1.65;0.80;;;15.40;48.30;;;;;;5138447;27;20023;-51
2022/02/06 03:52:48;;;;;;;2.85;0.90;;;15.40;48.40;;;;;;5137942;27;20018;-53
2022/02/06 03:55:20;;;;;;;2.47;0.93;;;15.40;48.40;;;;;;5138995;27;20481;-53
2022/02/06 03:57:47;;;;;;;2.58;0.70;;;15.40;48.60;;;;;;5140035;27;20110;-53
2022/02/06 04:00:14;;;;;;;1.42;0.60;;;15.30;48.30;;;;;;5139504;27;20035;-52
2022/02/06 04:02:41;;;;;;;1.95;0.63;;;15.40;48.60;;;;;;5138834;27;20015;-50
2022/02/06 04:05:07;;;;;;;2.10;0.60;;;15.40;48.60;;;;;;5138731;27;20034;-52
2022/02/06 04:07:33;;;;;;;1.52;0.65;;;15.40;48.70;;;;;;5140247;27;20071;-48
2022/02/06 04:10:00;;;;;;;1.77;0.70;;;15.40;48.70;;;;;;5139178;27;20442;-50
2022/02/06 04:12:27;;;;;;;2.30;0.80;;;15.40;48.70;;;;;;5138385;27;20381;-51
2022/02/06 04:14:59;;;;;;;2.63;0.70;;;15.40;48.80;;;;;;5138288;27;20007;-50
2022/02/06 04:17:37;;;;;;;1.67;0.70;;;15.40;48.60;;;;;;5138133;27;20018;-52
2022/02/06 04:20:04;;;;;;;2.13;0.73;;;15.40;48.80;;;;;;5137405;27;20046;-52
2022/02/06 04:22:31;;;;;;;1.58;0.80;;;15.30;48.70;;;;;;5136940;27;20011;-47
2022/02/06 04:24:57;;;;;;;2.30;0.82;;;15.40;48.80;;;;;;5137012;27;20016;-47
2022/02/06 04:27:24;;;;;;;2.17;0.60;;;15.30;48.80;;;;;;5136829;27;20008;-48
2022/02/06 04:29:52;;;;;;;0.77;0.47;;;15.30;48.60;;;;;;5135698;27;20019;-48
2022/02/06 04:32:19;;;;;;;1.90;0.65;;;15.30;48.90;;;;;;5135656;27;20090;-49
2022/02/06 04:34:46;;;;;;;2.00;0.88;;;15.30;48.80;;;;;;5136466;27;20495;-47
2022/02/06 04:56:01;;;;;;;2.85;0.80;;;15.30;49.00;;;;;;5136582;27;20030;-49
2022/02/06 05:13:01;;;;;;;2.25;0.80;;;15.30;49.40;;;;;;5138799;27;20034;-48
2022/02/06 05:33:39;;;;;;;1.70;0.82;;;15.30;49.60;;;;;;5123209;27;20470;-50
2022/02/06 05:36:08;;;;;;;2.20;0.70;;;15.30;49.80;;;;;;5135723;27;20023;-49
2022/02/06 05:38:34;;;;;;;2.08;0.73;;;15.30;49.50;;;;;;5136672;27;20046;-50
2022/02/06 05:41:03;;;;;;;2.55;0.63;;;15.30;49.90;;;;;;5137436;27;20023;-46
2022/02/06 05:43:29;;;;;;;1.85;0.73;;;15.30;49.60;;;;;;5137977;27;20064;-50
2022/02/06 05:45:55;;;;;;;1.33;0.60;;;15.30;49.80;;;;;;5137988;27;20087;-46
2022/02/06 05:48:21;;;;;;;1.27;0.70;;;15.30;49.70;;;;;;5137653;27;20410;-48
2022/02/06 05:50:47;;;;;;;1.33;0.50;;;15.30;49.60;;;;;;5137780;27;20011;-53
2022/02/06 05:53:15;;;;;;;1.05;0.70;;;15.30;49.80;;;;;;5137906;27;20050;-50
2022/02/06 05:55:42;;;;;;;2.13;0.80;;;15.30;50.00;;;;;;5138167;27;20011;-51
2022/02/06 05:58:08;;;;;;;1.50;0.70;;;15.30;49.90;;;;;;5137268;27;20024;-47
2022/02/06 06:00:34;;;;;;;1.00;0.68;;;15.30;49.70;;;;;;5139125;27;20011;-47
2022/02/06 06:03:00;;;;;;;1.58;0.60;;;15.30;49.80;;;;;;5137427;27;20031;-50
2022/02/06 06:05:27;;;;;;;0.60;0.60;;;15.30;50.00;;;;;;5137587;27;20023;-47
2022/02/06 06:07:52;;;;;;;1.00;0.68;;;15.30;49.80;;;;;;5137186;27;20008;-48
2022/02/06 06:10:19;;;;;;;1.85;0.60;;;15.30;50.10;;;;;;5136850;27;20016;-49
2022/02/06 06:12:46;;;;;;;2.05;0.75;;;15.30;49.90;;;;;;5136655;27;20008;-50
2022/02/06 06:15:11;;;;;;;2.72;0.80;;;15.30;50.00;;;;;;5135859;27;20022;-51
2022/02/06 06:17:38;;;;;;;1.35;0.75;;;15.30;50.10;;;;;;5135864;27;20016;-52
2022/02/06 06:20:08;;;;;;;2.08;0.77;;;15.20;50.10;;;;;;5134868;27;20035;-51
2022/02/06 06:22:34;;;;;;;1.60;0.88;;;15.20;50.10;;;;;;5136325;27;20023;-49
2022/02/06 06:25:03;;;;;;;1.33;0.50;;;15.20;50.00;;;;;;5136043;27;20088;-47
2022/02/06 06:27:29;;;;;;;1.55;0.70;;;15.30;50.20;;;;;;5136136;27;20039;-50
2022/02/06 06:29:56;;;;;;;2.05;0.70;;;15.30;50.20;;;;;;5136462;27;20014;-48
2022/02/06 06:32:22;;;;;;;0.82;0.60;;;15.30;50.20;;;;;;5136166;27;20086;-51
2022/02/06 06:34:51;;;;;;;3.08;0.65;;;15.30;50.10;;;;;;5135927;27;20042;-48
2022/02/06 06:37:19;;;;;;;1.67;0.70;;;15.20;50.10;;;;;;5137559;27;20481;-48
2022/02/06 06:39:48;;;;;;;1.60;0.50;;;15.30;50.40;;;;;;5138554;27;20362;-49
2022/02/06 06:42:16;;;;;;;0.88;0.60;;;15.30;50.30;;;;;;5138165;27;20593;-50
2022/02/06 06:44:42;;;;;;;1.05;0.50;;;15.20;50.50;;;;;;5136669;27;20027;-49
2022/02/06 06:47:09;;;;;;;1.65;0.70;;;15.20;50.30;;;;;;5137730;27;20031;-46
2022/02/06 06:49:35;;;;;;;1.50;0.77;;;15.20;50.40;;;;;;5133931;27;20019;-49
2022/02/06 06:52:02;;;;;;;1.85;0.88;;;15.20;50.50;;;;;;5135857;27;20027;-49
2022/02/06 06:54:38;;;;;;;1.92;1.10;;;15.20;50.50;;;;;;5135306;27;20022;-47
2022/02/06 07:02:28;;;;;;;1.92;0.90;;;15.20;50.50;;;;;;5134358;27;20037;-45
2022/02/06 07:04:55;;;;;;;1.85;0.60;;;15.20;50.60;;;;;;5134593;27;20042;-45
2022/02/06 07:07:21;;;;;;;2.33;0.70;;;15.20;50.60;;;;;;5134615;27;20011;-46
2022/02/06 07:09:46;;;;;;;1.40;0.60;;;15.20;50.70;;;;;;5132474;28;20454;-47
2022/02/06 07:12:15;;;;;;;0.50;0.50;;;15.20;50.90;;;;;;5134157;27;20026;-50
2022/02/06 07:14:44;;;;;;;1.52;0.52;;;15.20;50.80;;;;;;5134673;27;20023;-48
2022/02/06 07:17:10;;;;;;;1.05;0.55;;;15.20;50.80;;;;;;5138720;27;20019;-53
2022/02/06 07:19:37;;;;;;;5.68;0.70;;;15.20;51.00;;;;;;5138413;27;20047;-45
2022/02/06 07:22:02;;;;;;;2.53;0.80;;;15.20;50.90;;;;;;5138512;27;20076;-49
2022/02/06 07:24:29;;;;;;;2.20;0.80;;;15.20;50.90;;;;;;5138338;27;20474;-48
2022/02/06 07:26:58;;;;;;;2.10;0.90;;;15.20;50.80;;;;;;5138589;27;20022;-46
2022/02/06 07:29:24;;;;;;;2.60;0.90;;;15.20;50.90;;;;;;5138056;27;20064;-48
2022/02/06 07:31:51;;;;;;;2.42;0.77;;;15.20;51.00;;;;;;5137926;27;20019;-46
2022/02/06 07:34:17;;;;;;;1.27;0.47;;;15.20;50.90;;;;;;5138807;27;20019;-47
2022/02/06 07:36:43;;;;;;;1.75;0.55;;;15.20;51.00;;;;;;5137906;27;20027;-50
2022/02/06 07:39:10;;;;;;;1.45;0.60;;;15.20;51.10;;;;;;5139052;27;20031;-49
2022/02/06 07:41:36;;;;;;;0.98;0.60;;;15.20;51.00;;;;;;5138655;27;20023;-50
2022/02/06 07:44:01;;;;;;;1.50;0.60;;;15.20;51.10;;;;;;5138273;27;20035;-49
2022/02/06 07:46:40;;;;;;;1.88;0.70;;;15.20;51.20;;;;;;5137335;27;20075;-47
2022/02/06 07:49:06;;;;;;;2.15;0.63;;;15.20;51.20;;;;;;5138875;27;20098;-48
2022/02/06 07:51:35;;;;;;;1.45;0.65;;;15.20;51.20;;;;;;5139339;27;20011;-46
2022/02/06 07:54:01;;;;;;;1.88;0.60;;;15.20;51.40;;;;;;5139183;27;20015;-46
2022/02/06 07:56:26;;;;;;;2.42;0.80;;;15.20;51.30;;;;;;5139399;27;20083;-48
2022/02/06 07:58:53;;;;;;;1.40;0.60;;;15.20;51.10;;;;;;5139697;27;20466;-49
2022/02/06 08:01:18;;;;;;;1.63;0.70;;;15.20;51.30;;;;;;5139228;27;20031;-49
2022/02/06 08:03:45;;;;;;;3.17;0.88;;;15.20;51.50;;;;;;5139167;27;20027;-48
2022/02/06 08:06:13;;;;;;;3.65;0.88;;;15.10;51.40;;;;;;5139471;27;20016;-48
2022/02/06 08:08:38;;;;;;;1.40;0.63;;;15.20;51.50;;;;;;5138335;27;20019;-49
2022/02/06 08:11:06;;;;;;;1.10;0.60;;;15.20;51.30;;;;;;5138145;27;20023;-48
2022/02/06 08:16:24;;;;;;;1.63;0.73;;;15.20;51.50;;;;;;5134699;27;20040;-48
2022/02/06 08:18:51;;;;;;;2.67;0.75;;;15.20;51.60;;;;;;5137964;27;20051;-47
2022/02/06 08:21:24;;;;;;;1.65;0.75;;;15.20;51.80;;;;;;5138705;27;20038;-49
2022/02/06 08:23:51;;;;;;;2.72;0.93;;;15.20;51.60;;;;;;5139486;27;20054;-47
2022/02/06 08:26:17;;;;;;;1.45;0.57;;;15.20;51.70;;;;;;5138815;27;20411;-51
2022/02/06 08:28:43;;;;;;;1.20;0.63;;;15.20;51.80;;;;;;5139281;27;20496;-48
2022/02/06 08:31:08;;;;;;;1.38;0.73;;;15.10;51.80;;;;;;5138847;27;20022;-46
2022/02/06 08:33:35;;;;;;;2.72;0.43;;;15.20;51.80;;;;;;5138906;27;20107;-47
2022/02/06 08:36:01;;;;;;;2.33;0.90;;;15.20;51.70;;;;;;5137520;27;20090;-47
2022/02/06 08:38:27;;;;;;;2.05;0.57;;;15.20;52.10;;;;;;5138277;27;20023;-48
2022/02/06 08:40:54;;;;;;;1.63;0.70;;;15.10;51.90;;;;;;5137985;27;20027;-46
2022/02/06 08:43:20;;;;;;;2.05;0.60;;;15.10;51.80;;;;;;5137654;27;20028;-49
2022/02/06 08:45:46;;;;;;;0.90;0.52;;;15.10;51.90;;;;;;5137642;27;20023;-49
2022/02/06 08:48:12;;;;;;;3.05;0.70;;;15.10;52.20;;;;;;5137295;27;20088;-48
2022/02/06 08:50:39;;;;;;;2.13;0.70;;;15.10;52.00;;;;;;5136615;27;20011;-46
2022/02/06 08:53:06;;;;;;;2.63;0.70;;;15.10;52.10;;;;;;5136698;27;20028;-51
2022/02/06 08:55:33;;;;;;;2.63;0.80;;;15.10;52.20;;;;;;5136549;27;20007;-50
2022/02/06 08:58:00;;;;;;;1.50;0.75;;;15.10;52.00;;;;;;5136697;27;20059;-48
2022/02/06 09:00:26;;;;;;;1.55;0.60;;;15.10;52.60;;;;;;5136741;27;20489;-45
2022/02/06 09:02:53;;;;;;;0.98;0.52;;;15.10;52.20;;;;;;5136873;27;20020;-50
2022/02/06 09:05:19;;;;;;;1.83;0.90;;;15.10;52.20;;;;;;5137162;27;20094;-46
2022/02/06 09:07:45;;;;;;;1.23;0.70;;;15.10;52.40;;;;;;5137032;27;20076;-49
2022/02/06 09:10:13;;;;;;;1.15;0.45;;;15.10;52.40;;;;;;5137407;27;20026;-49
2022/02/06 09:12:43;;;;;;;1.95;0.70;;;15.10;52.20;;;;;;5137280;27;20011;-46
2022/02/06 09:15:10;;;;;;;2.40;0.68;;;15.10;52.50;;;;;;5135047;27;20018;-48
2022/02/06 09:17:36;;;;;;;3.67;0.80;;;15.10;52.10;;;;;;5136841;27;20034;-48
2022/02/06 09:20:04;;;;;;;1.65;0.68;;;15.10;52.40;;;;;;5136420;27;20066;-47
2022/02/06 09:22:31;;;;;;;2.10;0.75;;;15.10;52.40;;;;;;5136943;27;20015;-45
2022/02/06 09:24:58;;;;;;;0.90;0.50;;;15.10;52.60;;;;;;5136830;27;20027;-45
2022/02/06 09:27:24;;;;;;;1.15;0.73;;;15.10;52.70;;;;;;5137531;27;20043;-50
2022/02/06 09:29:51;;;;;;;1.88;0.60;;;15.10;52.30;;;;;;5137483;27;20402;-49
2022/02/06 09:37:10;;;;;;;1.15;0.50;;;15.10;52.70;;;;;;5137014;27;20103;-48
2022/02/06 09:39:40;;;;;;;1.00;0.40;;;15.10;52.70;;;;;;5135854;27;20023;-46
2022/02/06 09:42:07;;;;;;;2.08;0.70;;;15.10;52.90;;;;;;5135758;27;20477;-48
2022/02/06 09:44:33;;;;;;;1.17;0.50;;;15.10;52.80;;;;;;5137037;27;20019;-46
2022/02/06 09:46:59;;;;;;;1.60;0.60;;;15.10;52.90;;;;;;5137658;27;20474;-46
2022/02/06 09:49:27;;;;;;;1.13;0.60;;;15.10;52.60;;;;;;5137068;27;20019;-46
2022/02/06 09:51:53;;;;;;;0.95;0.40;;;15.10;52.60;;;;;;5137241;27;20031;-45
2022/02/06 09:54:21;;;;;;;2.85;0.70;;;15.10;52.60;;;;;;5137234;27;20420;-48
2022/02/06 09:56:50;;;;;;;1.77;0.60;;;15.10;53.00;;;;;;5136390;27;20011;-45
2022/02/06 09:59:20;;;;;;;3.10;0.60;;;15.10;52.90;;;;;;5136293;27;20094;-44
2022/02/06 10:01:53;;;;;;;1.13;0.50;;;15.10;53.20;;;;;;5134978;27;20027;-46
2022/02/06 10:04:29;;;;;;;1.95;0.77;;;15.10;52.90;;;;;;5135813;27;20469;-47
2022/02/06 10:07:01;;;;;;;1.58;0.52;;;15.10;53.10;;;;;;5135844;27;20050;-49
2022/02/06 10:09:37;;;;;;;0.50;0.30;;;15.10;53.10;;;;;;5136555;27;20015;-45
2022/02/06 10:12:04;;;;;;;0.73;0.45;;;15.10;53.40;;;;;;5135848;27;20090;-48
2022/02/06 10:14:30;;;;;;;1.92;0.65;;;15.10;52.90;;;;;;5137427;27;20023;-48
2022/02/06 10:16:56;;;;;;;1.75;0.60;;;15.00;53.40;;;;;;5136883;27;20387;-49
2022/02/06 10:19:22;;;;;;;1.73;0.50;;;15.00;53.40;;;;;;5136348;27;20075;-48
2022/02/06 10:21:49;;;;;;;1.50;0.65;;;15.10;53.40;;;;;;5136409;27;20389;-49
2022/02/06 10:24:23;;;;;;;0.98;0.57;;;15.10;53.30;;;;;;5136005;27;20114;-47
2022/02/06 10:27:05;;;;;;;5.10;0.55;;;15.10;53.00;;;;;;5135137;27;20404;-48
2022/02/06 10:29:39;;;;;;;0.85;0.40;;;15.10;53.90;;;;;;5135155;27;20038;-48
2022/02/06 10:32:06;;;;;;;1.83;0.60;;;15.10;53.10;;;;;;5135392;27;20026;-47
2022/02/06 10:34:35;;;;;;;1.85;0.80;;;15.10;53.00;;;;;;5135552;27;20062;-47
2022/02/06 10:37:18;;;;;;;1.27;0.70;;;15.10;53.10;;;;;;5135125;27;20024;-45
2022/02/06 10:40:01;;;;;;;1.45;0.60;;;15.10;53.50;;;;;;5134779;27;20554;-47
2022/02/06 10:42:29;;;;;;;1.17;0.60;;;15.10;53.40;;;;;;5135130;27;20058;-49
2022/02/06 10:45:19;;;;;;;2.35;0.70;;;15.10;53.50;;;;;;5134550;27;20023;-45
2022/02/06 10:47:46;;;;;;;;;;;15.10;53.70;;;;;;5135703;27;20027;-48
2022/02/06 10:50:18;;;;;;;2.28;0.60;;;15.10;53.20;;;;;;5135142;27;19899;-46
2022/02/06 10:52:45;;;;;;;1.08;0.65;;;15.10;53.60;;;;;;5135452;27;20473;-47
2022/02/06 10:55:10;;;;;;;1.02;0.57;;;15.10;53.80;;;;;;5136529;27;20094;-49
2022/02/06 10:57:37;;;;;;;1.35;0.43;;;15.10;53.60;;;;;;5135694;27;20015;-47
2022/02/06 11:00:09;;;;;;;1.27;0.60;;;15.10;53.90;;;;;;5135533;27;20132;-48
2022/02/06 11:02:57;;;;;;;1.08;0.45;;;15.10;54.60;;;;;;5135063;27;20469;-48
2022/02/06 11:05:32;;;;;;;1.50;0.63;;;15.10;54.30;;;;;;5135516;27;20027;-49
2022/02/06 11:08:01;;;;;;;1.52;0.77;;;15.10;53.90;;;;;;5134751;27;20094;-48
2022/02/06 11:10:27;;;;;;;2.20;0.45;;;15.10;54.70;;;;;;5134281;27;20030;-47
2022/02/06 11:12:57;;;;;;;1.25;0.50;;;15.10;54.50;;;;;;5134330;27;20019;-48
2022/02/06 11:15:25;;;;;;;1.70;0.60;;;15.10;54.90;;;;;;5134691;27;20019;-48
2022/02/06 11:18:22;;;;;;;0.60;0.35;;;15.10;54.90;;;;;;5134315;27;20012;-49
2022/02/06 11:20:53;;;;;;;1.73;0.70;;;15.10;54.90;;;;;;5134552;27;20028;-49
2022/02/06 11:23:19;;;;;;;;;;;15.10;54.60;;;;;;5135008;27;20023;-50
2022/02/06 11:25:45;;;;;;;1.65;0.52;;;15.10;55.00;;;;;;5133618;28;20002;-48
2022/02/06 11:28:12;;;;;;;2.30;0.60;;;15.10;55.20;;;;;;5134732;28;20482;-49
2022/02/06 11:30:42;;;;;;;0.85;0.47;;;15.10;55.00;;;;;;5134601;27;20035;-47
2022/02/06 11:33:08;;;;;;;1.42;0.50;;;15.10;55.50;;;;;;5134571;27;20500;-50
2022/02/06 11:35:36;;;;;;;2.20;0.50;;;15.10;55.60;;;;;;5135009;28;20024;-46
2022/02/06 11:44:06;;;;;;;2.95;0.75;;;15.10;55.70;;;;;;5134661;28;20042;-49
2022/02/06 11:46:38;;;;;;;1.05;0.50;;;15.10;55.40;;;;;;5134483;27;20090;-47
2022/02/06 11:49:11;;;;;;;1.08;0.60;;;15.10;55.40;;;;;;5134115;28;20485;-49
2022/02/06 11:51:36;;;;;;;1.95;0.60;;;15.10;55.40;;;;;;5117401;28;20043;-51
2022/02/06 11:54:43;;;;;;;1.77;0.63;;;15.10;55.40;;;;;;5135505;27;20019;-51
2022/02/06 12:00:10;;;;;;;2.05;0.68;;;15.10;55.60;;;;;;5053366;28;20036;-48
2022/02/06 12:02:42;;;;;;;2.17;0.70;;;15.10;55.60;;;;;;5054394;28;20075;-50
2022/02/06 12:05:09;;;;;;;1.23;0.50;;;15.10;55.70;;;;;;5056194;28;20061;-48
2022/02/06 12:07:53;;;;;;;1.00;0.55;;;15.10;55.80;;;;;;5055413;28;20041;-49
2022/02/06 12:10:23;;;;;;;2.05;0.63;;;15.10;55.70;;;;;;5054863;28;20028;-47
2022/02/06 12:13:13;;;;;;;2.90;0.80;;;15.10;55.70;;;;;;5054370;28;20037;-47
2022/02/06 12:15:47;;;;;;;;;;;15.10;55.80;;;;;;5040619;28;20462;-49
2022/02/06 12:18:16;;;;;;;2.75;0.80;;;15.10;55.60;;;;;;5054119;28;20413;-48
2022/02/06 12:20:49;;;;;;;0.88;0.50;;;15.10;55.60;;;;;;5055309;28;20029;-48
2022/02/06 12:23:38;;;;;;;1.45;0.57;;;15.00;55.50;;;;;;5055149;28;20040;-48
2022/02/06 12:26:30;;;;;;;1.80;0.63;;;15.00;55.40;;;;;;5054907;28;20032;-46
2022/02/06 12:29:13;;;;;;;2.50;0.60;;;15.00;55.40;;;;;;5054694;28;20032;-44
2022/02/06 12:32:06;;;;;;;1.63;0.50;;;15.00;55.50;;;;;;5117559;27;20019;-48
2022/02/06 12:37:35;;;;;;;2.10;0.95;;;15.00;55.50;;;;;;5138418;27;20050;-48
2022/02/06 12:40:24;;;;;;;2.65;0.70;;;15.00;55.40;;;;;;5137624;27;20031;-49
2022/02/06 12:42:56;;;;;;;1.48;0.60;;;15.00;55.50;;;;;;5137310;27;20015;-47
2022/02/06 12:45:22;;;;;;;1.75;0.60;;;15.00;55.40;;;;;;5136758;27;20007;-50
2022/02/06 12:48:11;;;;;;;2.88;0.80;;;15.00;55.40;;;;;;5136939;27;20023;-49
2022/02/06 12:50:56;;;;;;;2.05;0.60;;;15.00;55.40;;;;;;5135727;27;20409;-50
2022/02/06 12:53:42;;;;;;;2.55;0.60;;;15.00;55.30;;;;;;5136437;27;20031;-46
2022/02/06 12:56:30;;;;;;;3.92;0.80;;;15.00;55.40;;;;;;5136621;27;20485;-48
2022/02/06 12:58:56;;;;;;;0.93;0.50;;;15.00;55.40;;;;;;5137028;27;20100;-46
2022/02/06 13:01:41;;;;;;;1.20;0.65;;;15.00;55.40;;;;;;5136756;27;20448;-45
2022/02/06 13:04:09;;;;;;;1.42;0.60;;;15.00;55.90;;;;;;5136274;27;20026;-45
2022/02/06 13:06:39;;;;;;;1.08;0.40;;;15.00;55.30;;;;;;5136650;27;20035;-48
2022/02/06 13:09:27;;;;;;;0.95;0.50;;;15.00;55.30;;;;;;5136087;27;20092;-46
2022/02/06 13:11:59;;;;;;;1.30;0.60;;;15.00;55.20;;;;;;5135112;27;20031;-45
2022/02/06 13:23:26;;;;;;;1.27;0.47;;;15.00;55.20;;;;;;5093148;28;20491;-45
2022/02/06 13:26:05;;;;;;;1.83;0.50;;;15.00;55.10;;;;;;5093179;28;20113;-45
2022/02/06 13:38:48;;;;;;;1.33;0.70;;;15.30;54.30;;;;;;5092481;28;20024;-50
2022/02/06 13:41:17;;;;;;;1.17;0.50;;;15.40;54.20;;;;;;5092461;28;20550;-47
2022/02/06 13:43:45;;;;;;;2.38;0.47;;;15.40;54.00;;;;;;5092137;28;20516;-50
2022/02/06 13:46:14;;;;;;;2.05;0.75;;;15.40;54.00;;;;;;5092386;28;20063;-46
2022/02/06 13:48:40;;;;;;;1.25;0.70;;;15.40;53.90;;;;;;5092215;28;20094;-48
2022/02/06 13:51:09;;;;;;;1.70;0.60;;;15.50;53.70;;;;;;5092481;28;20028;-45
2022/02/06 13:53:36;;;;;;;1.52;0.70;;;15.60;53.60;;;;;;5092762;28;20483;-45
2022/02/06 13:56:04;;;;;;;2.70;0.60;;;15.60;53.30;;;;;;5093252;28;20020;-45
2022/02/06 13:58:30;;;;;;;1.33;0.60;;;15.70;53.20;;;;;;5097104;27;20032;-45
2022/02/06 14:01:07;;;;;;;1.92;0.70;;;15.80;52.90;;;;;;5136164;27;20019;-47
2022/02/06 14:03:47;;;;;;;1.00;0.50;;;15.90;52.80;;;;;;5136221;27;20032;-46
2022/02/06 14:06:15;;;;;;;0.50;0.40;;;15.90;52.60;;;;;;5135878;27;20099;-45
2022/02/06 14:08:57;;;;;;;1.33;0.43;;;16.00;52.50;;;;;;5136048;27;20018;-45
2022/02/06 14:11:28;;;;;;;1.27;0.60;;;16.00;52.40;;;;;;5137036;27;20039;-48
2022/02/06 14:14:17;;;;;;;0.93;0.50;;;16.10;52.20;;;;;;5136208;27;20034;-51
2022/02/06 14:16:44;;;;;;;1.58;0.50;;;16.20;52.00;;;;;;5137598;27;20060;-47
2022/02/06 14:19:11;;;;;;;1.60;0.47;;;16.30;51.70;;;;;;5136588;27;20039;-49
2022/02/06 14:21:43;;;;;;;1.02;0.65;;;16.40;51.60;;;;;;5137288;27;20015;-48
2022/02/06 14:24:09;;;;;;;2.20;0.73;;;16.40;51.50;;;;;;5135489;27;20038;-49
2022/02/06 14:26:35;;;;;;;1.40;0.55;;;16.40;51.50;;;;;;5136204;27;20015;-49
2022/02/06 14:29:01;;;;;;;3.90;0.80;;;16.40;51.60;;;;;;5135433;27;20426;-49
2022/02/06 14:31:28;;;;;;;1.73;0.50;;;16.40;51.70;;;;;;5135747;27;20026;-49
2022/02/06 14:34:14;;;;;;;1.77;0.50;;;16.40;51.60;;;;;;5135821;27;20019;-46
2022/02/06 14:36:40;;;;;;;1.17;0.50;;;16.40;51.50;;;;;;5135280;27;20023;-46
2022/02/06 14:39:06;;;;;;;1.65;0.60;;;16.40;51.40;;;;;;5133791;27;20163;-48
2022/02/06 14:41:59;;;;;;;1.20;0.68;;;16.40;51.40;;;;;;5134562;27;20426;-45
2022/02/06 14:44:25;;;;;;;1.17;0.50;;;16.50;51.40;;;;;;5134841;27;20516;-45
2022/02/06 14:46:51;;;;;;;1.30;0.80;;;16.50;51.30;;;;;;5135990;27;20019;-46
2022/02/06 14:49:19;;;;;;;1.95;0.60;;;16.50;51.30;;;;;;5135991;27;20023;-45
2022/02/06 14:51:44;;;;;;;1.05;0.30;;;16.50;51.20;;;;;;5136655;27;20023;-45
2022/02/06 14:54:11;;;;;;;0.93;0.55;;;16.50;51.10;;;;;;5138175;27;20052;-45
2022/02/06 14:56:42;;;;;;;1.60;0.55;;;16.50;51.10;;;;;;5137495;27;20098;-48
2022/02/06 14:59:08;;;;;;;1.17;0.60;;;16.60;51.20;;;;;;5138279;27;20019;-47
2022/02/06 15:01:34;;;;;;;2.17;0.70;;;16.60;51.10;;;;;;5137616;27;20735;-49
2022/02/06 15:04:00;;;;;;;2.60;0.60;;;16.60;51.00;;;;;;5137970;27;20038;-49
2022/02/06 15:06:26;;;;;;;1.10;0.70;;;16.60;50.90;;;;;;5138690;27;20103;-47
2022/02/06 15:08:52;;;;;;;1.20;0.45;;;16.60;51.00;;;;;;5137717;27;20461;-48
2022/02/06 15:11:19;;;;;;;1.35;0.70;;;16.60;50.90;;;;;;5137212;27;20056;-47
2022/02/06 15:13:45;;;;;;;1.10;0.60;;;16.60;50.90;;;;;;5136360;27;20070;-49
2022/02/06 15:16:16;;;;;;;1.70;0.60;;;16.60;50.90;;;;;;5136662;28;20019;-49
2022/02/06 15:18:52;;;;;;;1.30;0.60;;;16.60;50.90;;;;;;5135584;27;20188;-45
2022/02/06 15:21:18;;;;;;;4.22;0.80;;;16.70;50.80;;;;;;5135448;27;20019;-49
2022/02/06 15:23:44;;;;;;;0.80;0.45;;;16.70;50.70;;;;;;5134166;27;20021;-49
2022/02/06 15:26:10;;;;;;;0.88;0.57;;;16.60;50.70;;;;;;5134042;28;20023;-46
2022/02/06 15:28:37;;;;;;;1.65;0.70;;;16.70;50.70;;;;;;5132667;28;20018;-47
2022/02/06 15:31:03;;;;;;;1.10;0.50;;;16.70;50.70;;;;;;5134393;28;20023;-45
2022/02/06 15:33:29;;;;;;;1.05;0.52;;;16.70;50.60;;;;;;5134899;28;20068;-47
2022/02/06 15:35:55;;;;;;;1.30;0.50;;;16.70;50.70;;;;;;5136426;27;20015;-47
2022/02/06 15:38:22;;;;;;;1.33;0.60;;;16.70;50.70;;;;;;5138358;27;20019;-47
2022/02/06 15:40:48;;;;;;;1.00;0.60;;;16.70;50.60;;;;;;5138129;27;20015;-48
2022/02/06 15:43:15;;;;;;;1.77;0.63;;;16.70;50.60;;;;;;5138655;27;20079;-47
2022/02/06 15:45:41;;;;;;;1.77;0.80;;;16.70;50.50;;;;;;5138155;27;20018;-49
2022/02/06 15:48:08;;;;;;;1.70;0.70;;;16.70;50.50;;;;;;5137687;27;20098;-48
2022/02/06 15:50:34;;;;;;;1.40;0.60;;;16.70;50.50;;;;;;5138067;27;20086;-48
2022/02/06 15:53:01;;;;;;;1.42;0.60;;;16.70;51.00;;;;;;5138978;27;20011;-50
2022/02/06 15:55:26;;;;;;;0.88;0.50;;;16.70;50.50;;;;;;5139632;27;20019;-49
2022/02/06 15:57:52;;;;;;;1.27;0.70;;;16.70;50.50;;;;;;5137521;27;20037;-49
2022/02/06 16:00:18;;;;;;;2.13;0.70;;;16.70;50.40;;;;;;5139825;27;20014;-50
2022/02/06 16:02:46;;;;;;;1.67;0.55;;;16.80;50.40;;;;;;5139413;27;20007;-50
2022/02/06 16:05:13;;;;;;;1.23;0.52;;;16.80;50.30;;;;;;5137615;27;20108;-46
2022/02/06 16:07:42;;;;;;;1.23;0.52;;;16.70;50.30;;;;;;5139765;27;20461;-47